Time;durP1;ratioP1;P1;durP2;ratioP2;P2;SDS_P1;SDS_P2;PMS_P1;PMS_P2;Temp;Humidity;BMP_temperature;BMP_pressure;BME280_temperature;BME280_humidity;BME280_pressure;Samples;Min_cycle;Max_cycle;Signal;HPM_P1;HPM_P2
2021/08/25 00:01:27;;;;;;;11.65;4.40;;;26.70;43.30;;;;;;4953025;29;20027;-48
2021/08/25 00:03:53;;;;;;;8.40;3.95;;;26.80;43.30;;;;;;4951803;29;20498;-47
2021/08/25 00:06:19;;;;;;;8.38;4.32;;;26.80;43.20;;;;;;4953098;29;20034;-48
2021/08/25 00:08:44;;;;;;;5.43;3.92;;;26.80;43.20;;;;;;4952796;29;20036;-45
2021/08/25 00:11:10;;;;;;;5.82;3.72;;;26.80;43.10;;;;;;4952142;29;20027;-46
2021/08/25 00:13:36;;;;;;;5.15;3.80;;;26.80;43.00;;;;;;4953071;29;20423;-48
2021/08/25 00:16:02;;;;;;;7.45;3.80;;;26.80;43.00;;;;;;4952323;29;20487;-46
2021/08/25 00:18:27;;;;;;;7.45;3.58;;;26.80;43.00;;;;;;4953537;29;20023;-48
2021/08/25 00:20:53;;;;;;;5.50;3.70;;;26.80;42.90;;;;;;4952753;29;20094;-50
2021/08/25 00:23:19;;;;;;;6.78;4.00;;;26.80;42.90;;;;;;4936046;29;20032;-51
2021/08/25 00:25:44;;;;;;;5.80;3.70;;;26.80;42.90;;;;;;4952848;29;20032;-48
2021/08/25 00:28:10;;;;;;;5.63;3.83;;;26.80;42.80;;;;;;4953765;29;20031;-52
2021/08/25 00:30:36;;;;;;;4.68;3.40;;;26.80;42.70;;;;;;4953294;29;20559;-46
2021/08/25 00:33:02;;;;;;;7.30;3.40;;;26.80;42.70;;;;;;4954490;28;20034;-50
2021/08/25 00:35:28;;;;;;;5.85;3.35;;;26.80;42.80;;;;;;4957237;29;20031;-50
2021/08/25 00:37:53;;;;;;;5.55;3.60;;;26.80;42.80;;;;;;4956946;29;20151;-49
2021/08/25 00:40:20;;;;;;;4.47;2.90;;;26.80;42.80;;;;;;4939898;29;20031;-49
2021/08/25 00:42:45;;;;;;;4.43;3.25;;;26.80;42.60;;;;;;4956164;29;20042;-47
2021/08/25 00:45:11;;;;;;;5.25;3.28;;;26.80;42.70;;;;;;4956545;29;20110;-49
2021/08/25 00:47:41;;;;;;;4.13;2.92;;;26.80;42.70;;;;;;4955717;29;20027;-46
2021/08/25 00:50:09;;;;;;;7.20;3.40;;;26.80;42.70;;;;;;4956644;29;20109;-46
2021/08/25 00:52:40;;;;;;;6.28;3.40;;;26.80;42.70;;;;;;4956734;29;20600;-49
2021/08/25 00:55:07;;;;;;;5.65;3.20;;;26.80;42.80;;;;;;4956554;29;20055;-47
2021/08/25 00:57:35;;;;;;;5.60;3.38;;;26.80;42.70;;;;;;4957285;29;20495;-46
2021/08/25 01:00:05;;;;;;;5.82;3.25;;;26.80;42.70;;;;;;4956598;29;20046;-49
2021/08/25 01:02:44;;;;;;;5.60;3.17;;;26.80;42.70;;;;;;4955801;29;20031;-48
2021/08/25 01:05:10;;;;;;;4.97;3.20;;;26.80;42.50;;;;;;4956814;29;20023;-48
2021/08/25 01:07:39;;;;;;;4.20;3.20;;;26.90;42.50;;;;;;4956970;29;20031;-49
2021/08/25 01:10:32;;;;;;;4.60;3.17;;;26.80;42.60;;;;;;4957104;29;20035;-49
2021/08/25 01:12:59;;;;;;;5.38;3.20;;;26.80;42.60;;;;;;4955925;29;20035;-46
2021/08/25 01:15:33;;;;;;;5.88;2.90;;;26.80;42.60;;;;;;4956688;29;20047;-48
2021/08/25 01:18:04;;;;;;;6.35;3.03;;;26.80;42.40;;;;;;4956062;29;20238;-45
2021/08/25 01:20:31;;;;;;;6.28;3.03;;;26.90;42.60;;;;;;4956802;29;20031;-47
2021/08/25 01:22:58;;;;;;;4.95;2.95;;;26.90;42.60;;;;;;4956226;29;20035;-44
2021/08/25 01:25:26;;;;;;;6.88;3.15;;;26.80;42.40;;;;;;4956180;29;20070;-44
2021/08/25 01:28:05;;;;;;;4.55;2.67;;;26.80;42.40;;;;;;4955873;29;20019;-52
2021/08/25 01:30:34;;;;;;;5.68;3.17;;;26.80;42.60;;;;;;4955025;29;20055;-46
2021/08/25 01:33:00;;;;;;;4.38;2.70;;;26.90;42.60;;;;;;4955680;29;20058;-47
2021/08/25 01:35:32;;;;;;;5.22;2.88;;;26.90;42.60;;;;;;4955967;29;20031;-47
2021/08/25 01:38:00;;;;;;;4.90;3.03;;;26.90;42.40;;;;;;4955850;29;20110;-48
2021/08/25 01:40:26;;;;;;;5.13;3.08;;;26.90;42.30;;;;;;4954982;29;20027;-47
2021/08/25 01:42:51;;;;;;;4.75;3.00;;;26.90;42.50;;;;;;4955479;29;20038;-47
2021/08/25 01:45:17;;;;;;;4.00;2.60;;;26.90;42.50;;;;;;4955687;28;20119;-52
2021/08/25 01:47:43;;;;;;;4.00;2.63;;;26.90;42.50;;;;;;4954482;29;20035;-50
2021/08/25 01:50:09;;;;;;;4.22;2.72;;;26.90;42.50;;;;;;4956217;29;20039;-52
2021/08/25 01:52:35;;;;;;;4.03;2.78;;;26.90;42.40;;;;;;4956301;29;20043;-49
2021/08/25 01:55:00;;;;;;;4.93;2.80;;;26.90;42.50;;;;;;4955341;29;20489;-50
2021/08/25 01:57:26;;;;;;;3.47;2.65;;;26.90;42.30;;;;;;4955828;29;20035;-46
2021/08/25 01:59:51;;;;;;;3.90;2.65;;;26.90;42.40;;;;;;4955254;29;20023;-47
2021/08/25 02:02:17;;;;;;;3.63;2.65;;;26.90;42.40;;;;;;4955793;29;20039;-48
2021/08/25 02:04:43;;;;;;;3.65;2.55;;;26.90;42.40;;;;;;4938220;29;20062;-52
2021/08/25 02:07:09;;;;;;;3.92;2.58;;;26.90;42.30;;;;;;4954720;29;20432;-47
2021/08/25 02:09:34;;;;;;;5.50;2.58;;;26.90;42.40;;;;;;4955873;29;20023;-46
2021/08/25 02:12:00;;;;;;;3.97;2.58;;;26.90;42.20;;;;;;4955128;29;20306;-49
2021/08/25 02:14:26;;;;;;;4.97;2.97;;;26.90;42.30;;;;;;4955582;29;20027;-49
2021/08/25 02:16:51;;;;;;;4.47;2.55;;;26.90;42.40;;;;;;4953905;29;20027;-48
2021/08/25 02:19:17;;;;;;;4.43;3.05;;;26.90;42.30;;;;;;4955550;29;20388;-49
2021/08/25 02:21:43;;;;;;;4.40;2.88;;;26.90;42.30;;;;;;4955197;29;20139;-48
2021/08/25 02:24:08;;;;;;;4.75;2.97;;;26.90;42.30;;;;;;4955651;29;20042;-52
2021/08/25 02:26:34;;;;;;;3.85;2.80;;;26.90;42.20;;;;;;4954295;29;20023;-45
2021/08/25 02:29:00;;;;;;;3.88;2.60;;;26.90;42.20;;;;;;4953543;29;20570;-46
2021/08/25 02:31:25;;;;;;;3.40;2.45;;;26.90;42.20;;;;;;4955161;29;20494;-46
2021/08/25 02:33:51;;;;;;;5.75;2.75;;;26.90;42.20;;;;;;4954509;29;20511;-47
2021/08/25 02:36:19;;;;;;;4.68;2.80;;;26.90;42.10;;;;;;4953999;29;20054;-49
2021/08/25 02:38:45;;;;;;;4.38;2.92;;;26.90;42.10;;;;;;4954797;29;20027;-46
2021/08/25 02:41:31;;;;;;;4.65;2.78;;;26.90;42.10;;;;;;4955226;29;20023;-45
2021/08/25 02:43:57;;;;;;;5.43;2.72;;;26.90;41.90;;;;;;4953969;29;20035;-47
2021/08/25 02:46:22;;;;;;;5.25;2.95;;;26.90;41.90;;;;;;4954519;29;20031;-46
2021/08/25 02:48:48;;;;;;;4.63;2.60;;;26.90;41.90;;;;;;4953804;29;20027;-47
2021/08/25 02:51:14;;;;;;;6.07;2.90;;;26.90;42.10;;;;;;4954669;29;20031;-51
2021/08/25 02:53:40;;;;;;;5.10;2.75;;;26.90;42.10;;;;;;4953749;29;20027;-47
2021/08/25 02:56:06;;;;;;;4.93;3.00;;;26.90;42.20;;;;;;4953947;28;20035;-51
2021/08/25 02:58:32;;;;;;;3.50;2.50;;;26.90;42.00;;;;;;4953569;29;20042;-50
2021/08/25 03:00:58;;;;;;;4.32;2.40;;;26.90;41.90;;;;;;4954301;29;20453;-47
2021/08/25 03:03:24;;;;;;;5.07;2.88;;;26.90;42.10;;;;;;4952282;29;20062;-49
2021/08/25 03:05:50;;;;;;;5.18;2.85;;;26.90;41.80;;;;;;4953745;29;20110;-45
2021/08/25 03:08:16;;;;;;;9.88;7.57;;;26.90;41.80;;;;;;4953147;29;20536;-50
2021/08/25 03:10:42;;;;;;;19.88;17.02;;;26.90;41.90;;;;;;4954020;29;20027;-48
2021/08/25 03:13:08;;;;;;;22.63;19.33;;;26.90;42.20;;;;;;4954142;29;20031;-50
2021/08/25 03:15:34;;;;;;;9.52;7.60;;;26.90;41.80;;;;;;4953838;29;20469;-49
2021/08/25 03:18:00;;;;;;;8.07;5.00;;;26.90;41.90;;;;;;4952143;29;20548;-45
2021/08/25 03:20:25;;;;;;;9.15;4.57;;;26.90;41.90;;;;;;4937032;29;20063;-51
2021/08/25 03:22:51;;;;;;;7.97;4.53;;;26.90;41.70;;;;;;4952401;29;20031;-51
2021/08/25 03:25:17;;;;;;;6.10;4.03;;;26.80;41.50;;;;;;4952434;29;20036;-46
2021/08/25 03:27:43;;;;;;;6.25;4.88;;;26.90;41.60;;;;;;4950971;29;20036;-49
2021/08/25 03:30:09;;;;;;;7.47;4.30;;;26.90;41.60;;;;;;4952446;29;20023;-45
2021/08/25 03:32:35;;;;;;;6.72;4.38;;;26.80;41.60;;;;;;4953699;29;20046;-45
2021/08/25 03:35:01;;;;;;;6.43;4.30;;;26.80;41.50;;;;;;4953386;29;20453;-51
2021/08/25 03:37:27;;;;;;;6.13;4.20;;;26.90;41.50;;;;;;4952744;29;20058;-49
2021/08/25 03:39:52;;;;;;;6.18;4.30;;;26.90;41.50;;;;;;4953292;29;20023;-50
2021/08/25 03:42:18;;;;;;;5.47;3.90;;;26.80;41.40;;;;;;4953173;29;20093;-44
2021/08/25 03:44:44;;;;;;;5.43;4.10;;;26.80;41.30;;;;;;4952644;29;20116;-48
2021/08/25 03:47:09;;;;;;;7.40;3.90;;;26.80;41.50;;;;;;4953122;29;20389;-45
2021/08/25 03:49:36;;;;;;;5.40;4.00;;;26.80;41.30;;;;;;4953498;29;20055;-46
2021/08/25 03:52:03;;;;;;;5.32;3.50;;;26.80;41.50;;;;;;4951381;29;20162;-48
2021/08/25 03:54:28;;;;;;;6.20;3.88;;;26.80;41.30;;;;;;4953236;29;20098;-49
2021/08/25 03:57:13;;;;;;;5.35;3.85;;;26.80;41.40;;;;;;4951822;29;20125;-49
2021/08/25 03:59:39;;;;;;;5.63;3.63;;;26.80;41.50;;;;;;4953394;29;20042;-48
2021/08/25 04:02:04;;;;;;;5.57;3.45;;;26.80;41.30;;;;;;4952406;29;20023;-51
2021/08/25 04:04:30;;;;;;;6.72;3.50;;;26.80;41.20;;;;;;4953714;29;20031;-48
2021/08/25 04:06:56;;;;;;;5.68;3.20;;;26.80;41.20;;;;;;4952437;28;20054;-48
2021/08/25 04:09:21;;;;;;;6.97;3.90;;;26.80;41.30;;;;;;4953168;29;20113;-46
2021/08/25 04:11:47;;;;;;;5.32;3.33;;;26.80;41.20;;;;;;4952686;29;20064;-48
2021/08/25 04:14:13;;;;;;;4.53;3.22;;;26.80;41.00;;;;;;4953338;29;20035;-47
2021/08/25 04:16:38;;;;;;;5.68;3.72;;;26.80;41.10;;;;;;4953299;29;20020;-49
2021/08/25 04:19:04;;;;;;;5.20;3.63;;;26.80;41.20;;;;;;4953107;29;20357;-45
2021/08/25 04:21:29;;;;;;;5.93;3.83;;;26.80;41.10;;;;;;4953489;29;20388;-45
2021/08/25 04:23:55;;;;;;;5.80;3.42;;;26.80;41.00;;;;;;4952419;29;20027;-47
2021/08/25 04:26:21;;;;;;;5.43;3.30;;;26.80;40.90;;;;;;4951918;29;20034;-45
2021/08/25 04:28:47;;;;;;;5.15;3.10;;;26.80;41.00;;;;;;4952660;29;20477;-45
2021/08/25 04:31:12;;;;;;;5.13;3.33;;;26.80;41.00;;;;;;4951704;29;20432;-44
2021/08/25 04:33:38;;;;;;;5.18;3.30;;;26.80;40.90;;;;;;4953203;29;20035;-48
2021/08/25 04:36:04;;;;;;;5.80;3.17;;;26.80;40.80;;;;;;4952257;29;20028;-49
2021/08/25 04:38:30;;;;;;;4.90;3.22;;;26.80;40.80;;;;;;4951699;29;20035;-45
2021/08/25 04:40:58;;;;;;;5.85;3.42;;;26.80;40.80;;;;;;4952311;29;20027;-44
2021/08/25 04:43:25;;;;;;;6.78;3.00;;;26.80;40.80;;;;;;4952299;29;20079;-44
2021/08/25 04:45:50;;;;;;;7.13;3.25;;;26.80;40.70;;;;;;4952474;29;20031;-45
2021/08/25 04:48:16;;;;;;;5.85;3.33;;;26.80;40.80;;;;;;4952161;29;20122;-47
2021/08/25 04:50:42;;;;;;;8.38;3.35;;;26.80;40.70;;;;;;4952994;29;20141;-48
2021/08/25 04:53:07;;;;;;;5.15;3.35;;;26.80;40.70;;;;;;4952798;29;20034;-48
2021/08/25 04:55:37;;;;;;;5.32;3.17;;;26.80;40.70;;;;;;4953215;29;20047;-46
2021/08/25 04:58:03;;;;;;;5.07;3.30;;;26.80;40.70;;;;;;4951411;29;20028;-45
2021/08/25 05:00:29;;;;;;;4.78;3.15;;;26.80;40.70;;;;;;4951698;29;20108;-50
2021/08/25 05:02:55;;;;;;;5.78;3.38;;;26.80;40.70;;;;;;4952215;29;20035;-46
2021/08/25 05:05:20;;;;;;;8.05;3.60;;;26.80;40.60;;;;;;4953024;29;20035;-50
2021/08/25 05:07:46;;;;;;;5.93;3.33;;;26.80;40.60;;;;;;4951417;29;20027;-48
2021/08/25 05:10:12;;;;;;;5.50;2.92;;;26.80;40.60;;;;;;4951866;29;20082;-46
2021/08/25 05:12:38;;;;;;;5.18;3.50;;;26.80;40.60;;;;;;4951791;29;20441;-47
2021/08/25 05:15:05;;;;;;;5.72;3.30;;;26.80;40.60;;;;;;4951362;29;20027;-47
2021/08/25 05:17:31;;;;;;;5.32;3.13;;;26.80;40.60;;;;;;4952809;29;20050;-50
2021/08/25 05:20:07;;;;;;;6.82;3.78;;;26.80;40.60;;;;;;4954785;28;20509;-46
2021/08/25 05:22:33;;;;;;;7.43;3.50;;;26.70;40.60;;;;;;4955219;29;20063;-45
2021/08/25 05:24:59;;;;;;;7.63;3.15;;;26.80;40.60;;;;;;4955726;29;20035;-47
2021/08/25 05:27:25;;;;;;;6.18;3.33;;;26.80;40.60;;;;;;4956412;29;20031;-48
2021/08/25 05:29:51;;;;;;;7.15;3.60;;;26.80;40.50;;;;;;4955407;29;20035;-48
2021/08/25 05:32:17;;;;;;;4.05;3.08;;;26.80;40.60;;;;;;4956007;29;20023;-48
2021/08/25 05:34:43;;;;;;;5.82;3.40;;;26.80;40.60;;;;;;4954818;29;20039;-47
2021/08/25 05:37:09;;;;;;;6.10;3.28;;;26.80;40.50;;;;;;4955591;29;20093;-49
2021/08/25 05:39:35;;;;;;;5.68;3.03;;;26.80;40.60;;;;;;4938819;29;20432;-48
2021/08/25 05:42:00;;;;;;;5.78;3.17;;;26.80;40.50;;;;;;4955626;29;20031;-49
2021/08/25 05:44:26;;;;;;;5.53;3.00;;;26.80;40.50;;;;;;4954474;29;20031;-46
2021/08/25 05:46:52;;;;;;;4.70;3.00;;;26.80;40.50;;;;;;4955309;29;20290;-51
2021/08/25 05:49:17;;;;;;;5.28;3.40;;;26.80;40.50;;;;;;4956028;29;20117;-45
2021/08/25 05:51:43;;;;;;;6.55;3.50;;;26.80;40.50;;;;;;4952960;29;20023;-53
2021/08/25 05:54:09;;;;;;;7.40;3.63;;;26.80;40.50;;;;;;4954788;29;20027;-50
2021/08/25 05:56:35;;;;;;;6.40;3.50;;;26.80;40.40;;;;;;4955795;29;20163;-50
2021/08/25 05:59:01;;;;;;;5.70;3.35;;;26.80;40.40;;;;;;4955035;29;20462;-48
2021/08/25 06:01:27;;;;;;;9.18;3.65;;;26.80;40.60;;;;;;4955347;29;20030;-50
2021/08/25 06:03:52;;;;;;;8.77;3.80;;;26.80;41.10;;;;;;4955255;29;20078;-49
2021/08/25 06:06:19;;;;;;;6.07;3.88;;;26.80;41.00;;;;;;4955533;29;20030;-49
2021/08/25 06:08:44;;;;;;;7.55;3.38;;;26.80;40.80;;;;;;4954240;29;20028;-49
2021/08/25 06:11:10;;;;;;;5.95;3.28;;;26.80;40.60;;;;;;4953543;29;20043;-48
2021/08/25 06:13:36;;;;;;;6.45;3.85;;;26.90;40.60;;;;;;4954931;29;20031;-51
2021/08/25 06:16:02;;;;;;;13.05;4.95;;;26.80;40.50;;;;;;4954538;29;20618;-47
2021/08/25 06:18:28;;;;;;;10.07;4.65;;;26.80;40.80;;;;;;4954809;29;20055;-50
2021/08/25 06:20:55;;;;;;;18.90;5.80;;;26.80;40.70;;;;;;4953057;29;20035;-47
2021/08/25 06:23:21;;;;;;;19.60;6.35;;;26.80;40.90;;;;;;4954657;29;20073;-48
2021/08/25 06:25:49;;;;;;;20.58;7.05;;;26.90;41.20;;;;;;4953063;29;20079;-46
2021/08/25 06:28:15;;;;;;;18.63;7.07;;;26.90;41.20;;;;;;4954985;29;20039;-48
2021/08/25 06:30:40;;;;;;;22.58;7.38;;;26.90;41.00;;;;;;4953475;28;20019;-49
2021/08/25 06:33:06;;;;;;;15.25;7.15;;;26.90;41.10;;;;;;4953935;29;20545;-45
2021/08/25 06:35:32;;;;;;;25.80;7.75;;;26.90;41.00;;;;;;4953342;29;20027;-51
2021/08/25 06:37:58;;;;;;;27.52;7.72;;;26.90;41.40;;;;;;4953003;29;20023;-54
2021/08/25 06:40:23;;;;;;;22.33;7.82;;;26.90;42.10;;;;;;4954917;29;20377;-52
2021/08/25 06:42:49;;;;;;;27.63;6.30;;;27.00;41.90;;;;;;4952761;29;20065;-44
2021/08/25 06:45:15;;;;;;;16.75;6.40;;;27.00;41.60;;;;;;4953999;29;20059;-45
2021/08/25 06:47:59;;;;;;;18.40;5.85;;;27.00;41.60;;;;;;4954227;29;20110;-44
2021/08/25 06:50:25;;;;;;;16.65;5.85;;;27.00;41.50;;;;;;4954959;29;20034;-48
2021/08/25 06:52:51;;;;;;;12.30;5.80;;;27.00;41.20;;;;;;4953847;29;20027;-43
2021/08/25 06:55:16;;;;;;;21.70;5.70;;;27.00;41.10;;;;;;4954209;29;20429;-47
2021/08/25 06:57:42;;;;;;;17.17;4.93;;;27.00;40.80;;;;;;4954122;29;20086;-47
2021/08/25 07:00:08;;;;;;;11.05;4.70;;;26.90;40.30;;;;;;4953679;29;20058;-48
2021/08/25 07:02:34;;;;;;;13.90;4.30;;;26.90;39.80;;;;;;4952835;29;20063;-44
2021/08/25 07:04:59;;;;;;;14.48;5.82;;;26.80;39.50;;;;;;4952077;29;20449;-44
2021/08/25 07:07:25;;;;;;;11.90;4.80;;;26.80;39.50;;;;;;4952826;29;20023;-45
2021/08/25 07:09:51;;;;;;;13.07;4.57;;;26.70;39.50;;;;;;4953239;29;20469;-44
2021/08/25 07:12:17;;;;;;;8.98;4.80;;;26.60;39.50;;;;;;4952689;29;20380;-43
2021/08/25 07:14:42;;;;;;;6.95;4.07;;;26.50;39.50;;;;;;4952684;29;20042;-48
2021/08/25 07:17:08;;;;;;;8.18;4.70;;;26.50;39.50;;;;;;4952207;29;20099;-46
2021/08/25 07:19:34;;;;;;;6.43;4.28;;;26.40;39.50;;;;;;4936507;29;20055;-48
2021/08/25 07:22:00;;;;;;;6.60;3.90;;;26.40;39.60;;;;;;4952791;29;20067;-46
2021/08/25 07:24:25;;;;;;;10.85;3.80;;;26.30;39.80;;;;;;4953200;29;20473;-46
2021/08/25 07:26:51;;;;;;;9.88;5.15;;;26.30;39.80;;;;;;4951538;29;20109;-45
2021/08/25 07:29:17;;;;;;;9.85;4.53;;;26.30;39.90;;;;;;4951782;29;20047;-43
2021/08/25 07:31:43;;;;;;;11.55;4.68;;;26.30;39.90;;;;;;4953438;29;20023;-46
2021/08/25 07:34:08;;;;;;;8.73;4.60;;;26.30;39.90;;;;;;4952603;29;20031;-46
2021/08/25 07:36:34;;;;;;;9.60;4.95;;;26.20;39.90;;;;;;4952432;29;20388;-45
2021/08/25 07:39:01;;;;;;;10.05;5.07;;;26.20;40.00;;;;;;4952809;29;20034;-43
2021/08/25 07:41:27;;;;;;;9.52;4.53;;;26.20;40.10;;;;;;4953253;28;20027;-45
2021/08/25 07:43:52;;;;;;;10.82;4.28;;;26.10;40.10;;;;;;4952785;29;20038;-44
2021/08/25 07:46:18;;;;;;;7.70;4.10;;;26.10;40.10;;;;;;4952175;29;20549;-44
2021/08/25 07:48:44;;;;;;;7.63;4.32;;;26.10;40.00;;;;;;4935772;29;20449;-44
2021/08/25 07:51:10;;;;;;;12.95;4.30;;;26.10;40.00;;;;;;4951940;29;20065;-43
2021/08/25 07:53:39;;;;;;;8.43;4.90;;;26.10;40.60;;;;;;4953110;29;20540;-45
2021/08/25 07:56:05;;;;;;;6.68;4.38;;;26.10;40.10;;;;;;4953282;29;20051;-43
2021/08/25 07:58:31;;;;;;;9.38;5.10;;;26.10;40.10;;;;;;4953293;29;20027;-45
2021/08/25 08:00:57;;;;;;;7.80;4.68;;;26.10;40.10;;;;;;4952533;29;20107;-47
2021/08/25 08:03:23;;;;;;;6.55;4.13;;;26.10;40.10;;;;;;4953276;29;20113;-45
2021/08/25 08:05:49;;;;;;;8.18;4.38;;;26.10;40.10;;;;;;4952530;29;20038;-46
2021/08/25 08:08:16;;;;;;;7.45;5.18;;;26.10;40.00;;;;;;4953233;29;20027;-45
2021/08/25 08:10:43;;;;;;;12.57;4.25;;;26.10;39.90;;;;;;4952809;29;20159;-43
2021/08/25 08:13:08;;;;;;;8.90;4.47;;;26.10;39.90;;;;;;4951872;29;20045;-45
2021/08/25 08:15:36;;;;;;;9.23;4.38;;;26.10;39.90;;;;;;4952905;29;20106;-48
2021/08/25 08:18:09;;;;;;;8.88;4.78;;;26.00;39.80;;;;;;4952853;29;20495;-43
2021/08/25 08:20:37;;;;;;;11.65;4.97;;;26.00;39.80;;;;;;4951978;29;20027;-43
2021/08/25 08:23:03;;;;;;;9.45;5.05;;;26.00;39.80;;;;;;4951645;29;20551;-46
2021/08/25 08:25:28;;;;;;;7.80;4.25;;;26.00;39.70;;;;;;4951723;29;20035;-44
2021/08/25 08:27:54;;;;;;;9.80;4.82;;;26.10;39.70;;;;;;4952329;29;20031;-46
2021/08/25 08:30:20;;;;;;;8.82;4.88;;;26.10;39.60;;;;;;4952972;29;20114;-46
2021/08/25 08:33:04;;;;;;;7.18;4.43;;;26.00;39.60;;;;;;4951137;29;20039;-48
2021/08/25 08:35:33;;;;;;;7.88;5.03;;;26.10;39.50;;;;;;4951803;29;20131;-49
2021/08/25 08:38:00;;;;;;;9.98;5.47;;;26.10;39.70;;;;;;4951190;29;20031;-47
2021/08/25 08:40:26;;;;;;;8.88;5.15;;;26.10;38.90;;;;;;4952783;29;20019;-46
2021/08/25 08:42:52;;;;;;;8.18;5.30;;;26.10;38.60;;;;;;4951073;29;20462;-43
2021/08/25 08:45:20;;;;;;;9.68;5.93;;;26.10;38.40;;;;;;4952879;29;20047;-50
2021/08/25 08:47:47;;;;;;;8.85;5.55;;;26.00;38.20;;;;;;4950868;29;20035;-45
2021/08/25 08:50:13;;;;;;;9.25;5.32;;;26.10;38.30;;;;;;4952949;29;20118;-44
2021/08/25 08:52:39;;;;;;;8.82;5.32;;;26.00;38.40;;;;;;4952025;28;20042;-48
2021/08/25 08:55:06;;;;;;;12.55;5.45;;;26.00;38.40;;;;;;4955076;29;20047;-49
2021/08/25 08:57:32;;;;;;;8.90;5.90;;;26.00;38.40;;;;;;4955956;29;20110;-44
2021/08/25 09:00:00;;;;;;;12.27;5.60;;;26.00;38.50;;;;;;4955701;29;20026;-46
2021/08/25 09:02:37;;;;;;;10.80;5.88;;;26.00;38.50;;;;;;4938926;29;20066;-44
2021/08/25 09:05:15;;;;;;;14.63;5.50;;;26.00;38.60;;;;;;4955092;29;20041;-48
2021/08/25 09:07:58;;;;;;;15.23;5.90;;;26.00;38.50;;;;;;4955677;29;20128;-43
2021/08/25 09:10:25;;;;;;;10.88;6.00;;;26.00;38.30;;;;;;4954899;29;20126;-43
2021/08/25 09:12:53;;;;;;;8.98;5.45;;;26.10;38.30;;;;;;4955263;29;20035;-43
2021/08/25 09:15:21;;;;;;;10.70;5.93;;;26.00;38.20;;;;;;4956148;29;20354;-45
2021/08/25 09:17:46;;;;;;;8.32;5.00;;;26.00;38.00;;;;;;4937891;29;20031;-43
2021/08/25 09:20:13;;;;;;;8.57;5.47;;;26.00;37.80;;;;;;4954766;29;20399;-44
2021/08/25 09:22:39;;;;;;;9.10;5.47;;;26.00;37.80;;;;;;4953991;29;20027;-44
2021/08/25 09:25:05;;;;;;;10.50;5.40;;;26.00;37.80;;;;;;4955729;29;20027;-43
2021/08/25 09:27:31;;;;;;;11.07;5.90;;;26.00;37.90;;;;;;4938502;29;20035;-44
2021/08/25 09:30:00;;;;;;;9.60;5.55;;;26.00;37.90;;;;;;4953760;29;20038;-45
2021/08/25 09:32:28;;;;;;;9.90;5.20;;;26.00;38.00;;;;;;4955975;29;20034;-46
2021/08/25 09:35:13;;;;;;;8.20;5.15;;;26.00;38.10;;;;;;4954886;29;20086;-46
2021/08/25 09:37:49;;;;;;;8.07;4.82;;;25.90;38.30;;;;;;4955203;29;20023;-43
2021/08/25 09:40:17;;;;;;;9.95;5.90;;;26.00;38.30;;;;;;4955210;29;20020;-44
2021/08/25 09:42:45;;;;;;;13.82;6.00;;;26.00;38.40;;;;;;4955107;29;20431;-44
2021/08/25 09:45:18;;;;;;;12.45;5.90;;;26.00;38.60;;;;;;4955635;29;20051;-44
2021/08/25 09:47:55;;;;;;;8.48;5.70;;;26.00;38.80;;;;;;4953403;29;20481;-43
2021/08/25 09:50:24;;;;;;;9.32;5.13;;;26.00;38.60;;;;;;4955134;29;20149;-44
2021/08/25 09:52:50;;;;;;;9.70;5.80;;;26.10;38.60;;;;;;4954703;29;20027;-44
2021/08/25 09:55:27;;;;;;;8.43;6.00;;;26.10;38.50;;;;;;4955209;29;20055;-44
2021/08/25 09:58:12;;;;;;;7.93;4.97;;;26.10;38.40;;;;;;4953443;29;20043;-44
2021/08/25 10:00:39;;;;;;;11.27;5.35;;;26.10;38.30;;;;;;4955122;29;20031;-44
2021/08/25 10:03:23;;;;;;;10.10;5.68;;;26.10;38.30;;;;;;4953743;29;20059;-43
2021/08/25 10:05:49;;;;;;;10.82;5.72;;;26.10;38.20;;;;;;4954427;28;20070;-45
2021/08/25 10:08:16;;;;;;;8.18;5.45;;;26.10;38.20;;;;;;4954862;29;20031;-45
2021/08/25 10:10:43;;;;;;;8.57;5.55;;;26.10;38.20;;;;;;4952675;29;20065;-47
2021/08/25 10:13:10;;;;;;;9.93;6.10;;;26.10;38.00;;;;;;4954370;29;20027;-45
2021/08/25 10:15:45;;;;;;;8.65;5.55;;;26.10;37.70;;;;;;4953148;29;20038;-44
2021/08/25 10:18:23;;;;;;;11.88;6.13;;;26.10;37.70;;;;;;4953213;29;20034;-44
2021/08/25 10:21:27;;;;;;;10.70;5.90;;;26.10;37.70;;;;;;4952664;29;20031;-42
2021/08/25 10:23:58;;;;;;;8.90;5.85;;;26.10;37.50;;;;;;4952302;29;20038;-47
2021/08/25 10:26:27;;;;;;;10.73;5.88;;;26.10;37.10;;;;;;4952923;29;20047;-43
2021/08/25 10:28:59;;;;;;;11.10;6.57;;;26.20;37.10;;;;;;4953717;29;20027;-43
2021/08/25 10:31:48;;;;;;;7.97;5.80;;;26.10;36.90;;;;;;4953903;29;20031;-43
2021/08/25 10:34:23;;;;;;;11.55;6.47;;;26.10;36.90;;;;;;4952273;29;20047;-46
2021/08/25 10:36:50;;;;;;;9.30;6.28;;;26.10;36.80;;;;;;4953506;29;20034;-44
2021/08/25 10:39:36;;;;;;;11.32;6.80;;;26.10;36.70;;;;;;4953894;29;20385;-44
2021/08/25 10:42:04;;;;;;;9.75;6.03;;;26.00;36.80;;;;;;4935830;29;20195;-48
2021/08/25 10:47:06;;;;;;;9.88;5.95;;;26.10;36.90;;;;;;4953742;29;20042;-49
2021/08/25 10:49:46;;;;;;;9.25;5.88;;;26.10;36.90;;;;;;4953848;29;20493;-48
2021/08/25 10:52:14;;;;;;;8.73;5.30;;;26.10;36.80;;;;;;4953706;29;20118;-44
2021/08/25 10:54:42;;;;;;;10.05;5.93;;;26.10;36.80;;;;;;4952134;29;20059;-44
2021/08/25 10:57:10;;;;;;;12.50;7.00;;;26.20;36.90;;;;;;4954197;29;20092;-47
2021/08/25 10:59:36;;;;;;;12.88;6.72;;;26.20;36.90;;;;;;4952453;29;20166;-44
2021/08/25 11:02:02;;;;;;;12.35;7.63;;;26.20;36.90;;;;;;4951988;29;20358;-47
2021/08/25 11:04:28;;;;;;;11.07;6.72;;;26.20;37.10;;;;;;4953752;29;20365;-43
2021/08/25 11:06:58;;;;;;;12.75;6.45;;;26.20;37.20;;;;;;4951827;29;20512;-45
2021/08/25 11:09:30;;;;;;;11.00;6.60;;;26.20;37.10;;;;;;4952092;29;20046;-44
2021/08/25 11:11:59;;;;;;;8.70;5.80;;;26.30;37.10;;;;;;4951852;29;20059;-44
2021/08/25 11:14:34;;;;;;;10.45;5.45;;;26.30;37.10;;;;;;4952376;29;20085;-46
2021/08/25 11:17:18;;;;;;;13.05;6.28;;;26.30;37.00;;;;;;4952525;28;20480;-44
2021/08/25 11:19:47;;;;;;;9.32;6.30;;;26.30;37.00;;;;;;4935928;29;20024;-47
2021/08/25 11:22:19;;;;;;;11.55;5.65;;;26.30;36.90;;;;;;4953744;29;20110;-46
2021/08/25 11:24:51;;;;;;;9.98;5.88;;;26.30;36.90;;;;;;4953265;29;20414;-44
2021/08/25 11:27:28;;;;;;;10.02;5.63;;;26.30;36.70;;;;;;4952592;29;20031;-44
2021/08/25 11:30:15;;;;;;;10.27;6.20;;;26.30;36.70;;;;;;4953273;29;20027;-43
2021/08/25 11:32:50;;;;;;;9.52;6.20;;;26.30;36.90;;;;;;4951597;29;20109;-46
2021/08/25 11:35:23;;;;;;;10.52;6.25;;;26.30;36.80;;;;;;4951541;29;20114;-45
2021/08/25 11:37:50;;;;;;;11.05;6.55;;;26.30;36.70;;;;;;4953129;29;20031;-44
2021/08/25 11:40:20;;;;;;;9.27;6.32;;;26.40;36.60;;;;;;4952151;29;20036;-43
2021/08/25 11:42:46;;;;;;;10.80;6.05;;;26.40;36.50;;;;;;4951377;29;20086;-44
2021/08/25 11:45:21;;;;;;;10.25;6.32;;;26.40;36.50;;;;;;4950860;29;20031;-46
2021/08/25 11:47:54;;;;;;;13.43;7.10;;;26.40;36.70;;;;;;4952634;29;20473;-49
2021/08/25 11:50:25;;;;;;;9.68;6.28;;;26.40;36.50;;;;;;4952839;29;20146;-47
2021/08/25 11:52:52;;;;;;;11.38;6.10;;;26.50;36.50;;;;;;4952626;29;20042;-45
2021/08/25 11:55:18;;;;;;;10.65;6.78;;;26.50;36.20;;;;;;4934989;29;20083;-47
2021/08/25 11:57:52;;;;;;;10.63;5.93;;;26.50;36.20;;;;;;4950787;29;20034;-46
2021/08/25 12:00:21;;;;;;;11.10;6.32;;;26.50;36.60;;;;;;4951921;29;20039;-49
2021/08/25 12:03:01;;;;;;;11.35;6.97;;;26.50;36.20;;;;;;4951945;29;20130;-49
2021/08/25 12:05:29;;;;;;;10.45;6.95;;;26.50;35.90;;;;;;4951520;29;20063;-46
2021/08/25 12:08:09;;;;;;;9.35;6.40;;;26.60;36.00;;;;;;4950114;29;20035;-43
2021/08/25 12:10:39;;;;;;;10.75;6.50;;;26.50;36.00;;;;;;4951231;29;20031;-43
2021/08/25 12:13:06;;;;;;;9.52;5.43;;;26.60;37.20;;;;;;4952373;29;20035;-46
2021/08/25 12:15:43;;;;;;;8.88;5.82;;;26.60;37.30;;;;;;4952524;29;20166;-44
2021/08/25 12:18:09;;;;;;;10.90;6.82;;;26.60;37.50;;;;;;4951422;29;20053;-45
2021/08/25 12:20:36;;;;;;;10.75;6.40;;;26.70;37.70;;;;;;4951285;29;20038;-47
2021/08/25 12:23:07;;;;;;;10.75;6.57;;;26.70;37.70;;;;;;4952714;29;20226;-46
2021/08/25 12:25:57;;;;;;;14.20;6.55;;;26.80;37.80;;;;;;4952688;29;20027;-48
2021/08/25 12:28:43;;;;;;;9.57;6.30;;;26.80;38.00;;;;;;4948218;28;20036;-48
2021/08/25 12:31:20;;;;;;;8.80;6.38;;;26.80;38.20;;;;;;4957220;29;20030;-43
2021/08/25 12:36:37;;;;;;;10.10;5.90;;;26.90;38.20;;;;;;4955649;29;20112;-48
2021/08/25 12:39:08;;;;;;;11.48;6.72;;;26.90;38.30;;;;;;4955824;29;20721;-48
2021/08/25 12:41:36;;;;;;;11.85;6.55;;;27.00;38.50;;;;;;4955117;29;20113;-45
2021/08/25 12:44:03;;;;;;;11.38;7.03;;;27.00;38.60;;;;;;4955504;29;20034;-45
2021/08/25 12:46:30;;;;;;;14.25;7.47;;;27.00;38.60;;;;;;4954468;29;20035;-45
2021/08/25 12:48:56;;;;;;;10.93;6.45;;;27.00;38.40;;;;;;4955737;29;20134;-48
2021/08/25 12:51:22;;;;;;;14.95;6.32;;;27.10;38.90;;;;;;4954614;29;20105;-43
2021/08/25 12:53:50;;;;;;;12.93;7.00;;;27.10;38.60;;;;;;4955307;29;20042;-46